Louisburg, KS (66053)

5:21 PM CDT on August 04, 2015 (GMT -0500)
Powell Observatory, Lewis Young Park | | Change Station
CLOSE
Current Station
Personal Weather Station
Location: Louisburg, KS
Elevation: 1073 ft
Nearby Weather Stations

Elev 1073 ft 38.65 °N, 94.70 °W | Updated 0 second ago

Mostly Cloudy
Mostly Cloudy
67.2 °F
Feels Like 67.2 °F
N
0.0
Wind Variable Wind from NNE
Gusts 0.0 mph

Today
High -- | Low -- °F
--% Chance of Precip.
Yesterday
High -- | Low -- °F
Precip. -- in
6:22 AM 8:26 PM
Waning Gibbous, 74% visible
Pressure 29.99 in
Visibility 4.0 miles
Clouds Few 4700 ft
Mostly Cloudy 9000 ft
Overcast 11000 ft
Dew Point 63 °F
Humidity 86%
Rainfall 0.41 in
Snow Depth Not available.
UV 1 out of 12
Pollen 6.50 out of 12
Air Quality Not available.
Flu Activity Not available.
SPECI KOJC 042210Z 19005KT 4SM -TSRA BR FEW047 BKN090 OVC110 20/19 A2999 RMK AO2 LTG DSNT ALQDS P0009 T02000194

More Conditions Fewer Conditions

Pressure 29.99 in
Visibility 4.0 miles
Clouds Few 4700 ft
Mostly Cloudy 9000 ft
Overcast 11000 ft
Dew Point 63 °F
Humidity 86%
Rainfall 0.41 in
Snow Depth Not available.
UV 1 out of 12
Pollen 6.50 out of 12
Air Quality Not available.
Flu Activity Not available.
SPECI KOJC 042210Z 19005KT 4SM -TSRA BR FEW047 BKN090 OVC110 20/19 A2999 RMK AO2 LTG DSNT ALQDS P0009 T02000194

More Conditions Fewer Conditions

10-Day Weather Forecast

×

Almanac

Astronomy

Aug. 04, 2015 Rise Set
Actual Time
Civil Twilight
Nautical Twilight
Astronomical Twilight
Moon
Length of Visible Light
Length of Day
Tomorrow will be .
, % of the Moon is Illuminated

Today's Extremes

State Highs State Lows

Community

WunderPhotos

Upload Photos

1,844,007 photos uploaded!

WunderBlogs® & News

Nearby

Air Quality

  Air Quality AQ Index Pollutant
Not available.

Snow Depth

Station Depth Elevation

Earthquake Activity

City Distance Mag. Time & Date
Minimum magnitude displayed is 2.5.

Coastal Water Temperatures

Place Temperature

Stations

Nearby Weather Stations

Station Location Temp. Windchill Dew Point Humidity Wind Precip. Elev Updated Type